createdAt,value
2022-12-13T00:01:55.681Z,8.75
2022-12-13T00:04:25.239Z,8.65
2022-12-13T00:06:54.000Z,8.07
2022-12-13T00:09:22.661Z,9.13
2022-12-13T00:11:50.269Z,9.50
2022-12-13T00:14:17.780Z,8.65
2022-12-13T00:16:47.085Z,9.52
2022-12-13T00:19:15.101Z,9.68
2022-12-13T00:21:42.064Z,9.75
2022-12-13T00:24:09.214Z,9.57
2022-12-13T00:26:36.316Z,8.95
2022-12-13T00:29:06.536Z,9.73
2022-12-13T00:32:03.758Z,9.93
2022-12-13T00:34:21.012Z,8.13
2022-12-13T00:36:48.360Z,9.73
2022-12-13T00:39:16.565Z,9.60
2022-12-13T00:41:44.753Z,8.95
2022-12-13T00:44:13.418Z,8.52
2022-12-13T00:46:41.651Z,9.00
2022-12-13T00:49:10.906Z,9.73
2022-12-13T00:51:38.681Z,9.25
2022-12-13T00:54:05.688Z,8.63
2022-12-13T00:56:33.787Z,8.88
2022-12-13T00:59:00.956Z,8.10
2022-12-13T01:01:32.254Z,9.40
2022-12-13T01:04:02.368Z,8.77
2022-12-13T01:06:49.588Z,10.00
2022-12-13T01:09:20.788Z,9.07
2022-12-13T01:11:48.765Z,9.23
2022-12-13T01:14:17.129Z,8.65
2022-12-13T01:16:44.160Z,8.80
2022-12-13T01:19:11.126Z,8.90
2022-12-13T01:21:38.179Z,9.35
2022-12-13T01:24:06.888Z,9.55
2022-12-13T01:26:34.306Z,8.93
2022-12-13T01:29:01.638Z,9.85
2022-12-13T01:31:28.884Z,9.65
2022-12-13T01:33:55.837Z,8.50
2022-12-13T01:36:27.441Z,8.95
2022-12-13T01:38:58.812Z,9.07
2022-12-13T01:41:28.327Z,9.55
2022-12-13T01:44:06.244Z,8.38
2022-12-13T01:46:36.427Z,8.32
2022-12-13T01:49:19.234Z,6.80
2022-12-13T01:51:55.876Z,7.60
2022-12-13T01:54:33.605Z,8.35
2022-12-13T01:57:05.284Z,8.90
2022-12-13T02:02:01.452Z,7.43
2022-12-13T02:04:48.681Z,7.82
2022-12-13T02:07:23.428Z,8.00
2022-12-13T02:09:58.860Z,8.50
2022-12-13T02:12:35.233Z,8.77
2022-12-13T02:15:12.982Z,9.90
2022-12-13T02:18:05.375Z,10.00
2022-12-13T02:21:08.651Z,9.07
2022-12-13T02:24:15.566Z,10.13
2022-12-13T02:27:43.253Z,7.88
2022-12-13T02:30:27.007Z,8.73
2022-12-13T02:33:25.379Z,9.25
2022-12-13T02:36:28.561Z,8.98
2022-12-13T02:39:31.038Z,8.65
2022-12-13T02:42:05.850Z,9.30
2022-12-13T02:45:18.689Z,9.05
2022-12-13T02:47:51.996Z,9.23
2022-12-13T02:50:20.606Z,9.65
2022-12-13T02:52:48.298Z,9.60
2022-12-13T02:55:17.266Z,10.73
2022-12-13T02:57:46.201Z,10.50
2022-12-13T03:00:23.426Z,9.80
2022-12-13T03:03:11.416Z,9.30
2022-12-13T03:06:08.535Z,9.68
2022-12-13T03:09:15.129Z,10.50
2022-12-13T03:12:42.621Z,8.55
2022-12-13T03:15:20.918Z,8.88
2022-12-13T03:18:04.506Z,7.90
2022-12-13T03:20:31.809Z,8.55
2022-12-13T03:22:58.961Z,9.90
2022-12-13T03:25:32.925Z,8.10
2022-12-13T03:28:02.424Z,8.95
2022-12-13T03:30:33.014Z,9.45
2022-12-13T03:33:00.752Z,8.33
2022-12-13T03:35:34.774Z,8.40
2022-12-13T03:38:22.466Z,9.73
2022-12-13T03:40:54.884Z,9.15
2022-12-13T03:43:23.148Z,8.98
2022-12-13T03:45:52.664Z,8.93
2022-12-13T03:48:23.080Z,8.73
2022-12-13T03:50:52.711Z,9.07
2022-12-13T03:53:22.962Z,8.50
2022-12-13T03:58:36.939Z,7.55
2022-12-13T04:01:16.336Z,7.32
2022-12-13T04:03:46.968Z,7.70
2022-12-13T04:06:22.116Z,8.27
2022-12-13T04:08:51.114Z,8.07
2022-12-13T04:11:42.562Z,8.15
2022-12-13T04:14:11.853Z,9.98
2022-12-13T04:16:39.251Z,8.65
2022-12-13T04:19:06.369Z,8.32
2022-12-13T04:21:33.420Z,9.05
2022-12-13T04:24:01.461Z,8.90
2022-12-13T04:26:29.452Z,9.55
2022-12-13T04:28:57.424Z,9.52
2022-12-13T04:31:24.558Z,9.32
2022-12-13T04:33:51.656Z,9.90
2022-12-13T04:36:31.995Z,9.45
2022-12-13T04:39:22.298Z,8.50
2022-12-13T04:41:51.869Z,10.75
2022-12-13T04:44:28.657Z,10.07
2022-12-13T04:47:01.306Z,9.38
2022-12-13T04:49:30.201Z,9.45
2022-12-13T04:52:01.314Z,8.90
2022-12-13T04:54:35.725Z,8.48
2022-12-13T04:57:07.389Z,9.30
2022-12-13T04:59:35.168Z,8.55
2022-12-13T05:02:02.302Z,8.48
2022-12-13T05:04:33.013Z,8.30
2022-12-13T05:09:28.256Z,8.02
2022-12-13T05:12:01.728Z,7.65
2022-12-13T05:14:31.643Z,9.35
2022-12-13T05:17:00.304Z,8.80
2022-12-13T05:19:30.963Z,9.43
2022-12-13T05:22:02.002Z,9.45
2022-12-13T05:24:31.581Z,8.65
2022-12-13T05:26:59.197Z,8.10
2022-12-13T05:29:27.786Z,8.57
2022-12-13T05:31:54.911Z,8.82
2022-12-13T05:34:21.973Z,8.52
2022-12-13T05:36:48.955Z,8.60
2022-12-13T05:39:27.823Z,9.07
2022-12-13T05:42:01.514Z,8.98
2022-12-13T05:44:31.982Z,9.18
2022-12-13T05:47:02.179Z,9.20
2022-12-13T05:49:31.191Z,8.38
2022-12-13T05:51:58.316Z,8.57
2022-12-13T05:54:25.264Z,7.75
2022-12-13T05:56:52.211Z,8.52
2022-12-13T05:59:19.229Z,8.23
2022-12-13T06:01:49.141Z,8.35
2022-12-13T06:04:22.943Z,8.25
2022-12-13T06:06:51.992Z,7.43
2022-12-13T06:09:20.367Z,7.20
2022-12-13T06:11:48.269Z,8.10
2022-12-13T06:14:22.686Z,7.63
2022-12-13T06:16:52.632Z,7.22
2022-12-13T06:19:24.112Z,7.75
2022-12-13T06:21:53.355Z,7.97
2022-12-13T06:24:22.946Z,7.35
2022-12-13T06:26:50.850Z,6.95
2022-12-13T06:29:23.625Z,8.05
2022-12-13T06:32:02.136Z,7.03
2022-12-13T06:34:33.780Z,7.65
2022-12-13T06:39:33.026Z,6.18
2022-12-13T06:42:13.703Z,5.90
2022-12-13T06:44:51.715Z,6.75
2022-12-13T06:47:32.163Z,7.00
2022-12-13T06:50:05.496Z,7.03
2022-12-13T06:52:33.109Z,7.30
2022-12-13T06:55:00.218Z,6.82
2022-12-13T06:57:27.213Z,7.53
2022-12-13T06:59:54.154Z,8.48
2022-12-13T07:02:25.856Z,7.18
2022-12-13T07:04:54.163Z,8.00
2022-12-13T07:07:21.210Z,7.90
2022-12-13T07:09:48.199Z,8.68
2022-12-13T07:12:15.191Z,8.70
2022-12-13T07:14:42.446Z,7.78
2022-12-13T07:17:10.701Z,7.38
2022-12-13T07:19:38.113Z,7.88
2022-12-13T07:22:05.859Z,7.97
2022-12-13T07:24:34.941Z,7.35
2022-12-13T07:27:03.408Z,7.68
2022-12-13T07:29:30.408Z,7.63
2022-12-13T07:32:00.874Z,6.65
2022-12-13T07:34:29.793Z,7.85
2022-12-13T07:36:56.721Z,7.25
2022-12-13T07:39:26.112Z,6.93
2022-12-13T07:41:55.946Z,6.85
2022-12-13T07:44:27.094Z,7.63
2022-12-13T07:49:20.938Z,5.95
2022-12-13T07:51:48.017Z,6.95
2022-12-13T07:54:15.119Z,7.25
2022-12-13T07:56:42.189Z,8.27
2022-12-13T07:59:10.685Z,7.45
2022-12-13T08:01:37.907Z,7.68
2022-12-13T08:04:05.411Z,7.75
2022-12-13T08:06:37.921Z,8.00
2022-12-13T08:09:05.845Z,8.38
2022-12-13T08:11:33.070Z,6.70
2022-12-13T08:14:00.041Z,7.88
2022-12-13T08:16:29.474Z,7.90
2022-12-13T08:19:01.737Z,9.18
2022-12-13T08:21:57.134Z,8.23
2022-12-13T08:24:27.490Z,7.78
2022-12-13T08:27:01.240Z,8.93
2022-12-13T08:29:33.323Z,7.90
2022-12-13T08:32:12.902Z,7.00
2022-12-13T08:34:41.162Z,7.78
2022-12-13T08:37:08.352Z,9.63
2022-12-13T08:39:37.719Z,8.27
2022-12-13T08:42:25.160Z,8.48
2022-12-13T08:44:53.595Z,8.82
2022-12-13T08:47:25.966Z,8.32
2022-12-13T08:50:03.944Z,8.68
2022-12-13T08:52:39.197Z,8.82
2022-12-13T08:55:12.783Z,9.75
2022-12-13T08:57:42.680Z,8.40
2022-12-13T09:00:14.913Z,8.82
2022-12-13T09:02:42.318Z,8.93
2022-12-13T09:05:11.258Z,8.20
2022-12-13T09:07:41.957Z,8.15
2022-12-13T09:10:26.283Z,8.23
2022-12-13T09:13:02.373Z,7.90
2022-12-13T09:15:33.726Z,7.30
2022-12-13T09:18:05.052Z,8.32
2022-12-13T09:20:40.817Z,7.43
2022-12-13T09:23:14.324Z,7.93
2022-12-13T09:26:05.705Z,7.28
2022-12-13T09:28:35.211Z,7.85
2022-12-13T09:31:14.352Z,8.50
2022-12-13T09:33:42.138Z,8.43
2022-12-13T09:36:13.832Z,8.75
2022-12-13T09:38:41.015Z,7.97
2022-12-13T09:41:41.033Z,8.98
2022-12-13T09:44:32.168Z,5.35
2022-12-13T09:47:13.863Z,8.10
2022-12-13T09:49:52.848Z,8.40
2022-12-13T09:52:25.003Z,7.10
2022-12-13T09:54:57.445Z,7.45
2022-12-13T09:57:33.922Z,8.35
2022-12-13T10:00:13.365Z,7.55
2022-12-13T10:02:57.034Z,8.35
2022-12-13T10:05:39.604Z,8.10
2022-12-13T10:08:25.262Z,6.53
2022-12-13T10:10:55.816Z,7.00
2022-12-13T10:13:44.545Z,7.10
2022-12-13T10:16:28.378Z,7.40
2022-12-13T10:19:29.408Z,7.93
2022-12-13T10:22:01.710Z,7.40
2022-12-13T10:24:55.261Z,7.60
2022-12-13T10:27:37.428Z,8.32
2022-12-13T10:30:11.810Z,7.38
2022-12-13T10:32:59.915Z,8.30
2022-12-13T10:35:36.772Z,6.82
2022-12-13T10:38:31.738Z,7.97
2022-12-13T10:41:01.077Z,6.97
2022-12-13T10:43:30.453Z,7.50
2022-12-13T10:46:01.228Z,8.10
2022-12-13T10:48:51.418Z,7.10
2022-12-13T10:51:22.055Z,7.25
2022-12-13T10:53:57.216Z,6.50
2022-12-13T10:56:44.605Z,8.45
2022-12-13T10:59:37.732Z,7.63
2022-12-13T11:02:39.705Z,7.13
2022-12-13T11:05:34.009Z,7.60
2022-12-13T11:08:21.942Z,7.68
2022-12-13T11:11:04.896Z,7.80
2022-12-13T11:13:46.386Z,7.75
2022-12-13T11:16:22.595Z,7.20
2022-12-13T11:18:57.021Z,8.88
2022-12-13T11:21:28.734Z,8.52
2022-12-13T11:24:07.976Z,7.93
2022-12-13T11:26:39.013Z,7.95
2022-12-13T11:29:29.879Z,6.72
2022-12-13T11:32:47.798Z,6.60
2022-12-13T11:35:54.745Z,6.93
2022-12-13T11:39:01.292Z,6.22
2022-12-13T11:41:58.517Z,7.00
2022-12-13T11:44:51.966Z,6.65
2022-12-13T11:47:45.496Z,6.18
2022-12-13T11:50:33.202Z,6.72
2022-12-13T11:53:28.132Z,6.57
2022-12-13T11:56:30.546Z,6.50
2022-12-13T11:59:23.882Z,6.65
2022-12-13T12:02:06.793Z,6.25
2022-12-13T12:04:53.696Z,5.68
2022-12-13T12:07:33.874Z,6.85
2022-12-13T12:10:30.641Z,6.45
2022-12-13T12:13:22.400Z,6.13
2022-12-13T12:16:11.726Z,6.25
2022-12-13T12:18:38.761Z,6.95
2022-12-13T12:22:12.081Z,7.35
2022-12-13T12:24:53.357Z,6.82
2022-12-13T12:27:50.385Z,7.13
2022-12-13T12:30:27.884Z,6.72
2022-12-13T12:33:45.901Z,5.97
2022-12-13T12:36:49.303Z,6.45
2022-12-13T12:39:26.963Z,6.68
2022-12-13T12:43:11.873Z,5.45
2022-12-13T12:46:03.189Z,7.55
2022-12-13T12:49:18.916Z,6.70
2022-12-13T12:52:42.485Z,7.65
2022-12-13T12:55:45.805Z,6.65
2022-12-13T12:58:26.802Z,6.93
2022-12-13T13:01:26.316Z,6.13
2022-12-13T13:04:01.523Z,5.90
2022-12-13T13:06:49.856Z,6.97
2022-12-13T13:09:24.634Z,6.28
2022-12-13T13:11:57.718Z,6.68
2022-12-13T13:14:27.810Z,6.60
2022-12-13T13:16:55.740Z,6.20
2022-12-13T13:19:31.444Z,7.07
2022-12-13T13:22:01.996Z,6.60
2022-12-13T13:24:34.574Z,6.85
2022-12-13T13:27:10.507Z,6.70
2022-12-13T13:29:43.376Z,6.15
2022-12-13T13:32:11.067Z,6.70
2022-12-13T13:34:49.348Z,6.45
2022-12-13T13:37:23.276Z,6.18
2022-12-13T13:40:12.495Z,6.65
2022-12-13T13:43:05.426Z,6.45
2022-12-13T13:46:01.810Z,6.30
2022-12-13T13:49:00.466Z,5.97
2022-12-13T13:55:20.576Z,6.40
2022-12-13T13:58:34.246Z,5.38
2022-12-13T14:02:08.701Z,5.70
2022-12-13T14:05:05.006Z,6.25
2022-12-13T14:08:20.303Z,5.85
2022-12-13T14:11:52.640Z,5.75
2022-12-13T14:15:01.376Z,6.28
2022-12-13T14:18:11.812Z,5.25
2022-12-13T14:21:21.988Z,6.03
2022-12-13T14:24:16.616Z,5.43
2022-12-13T14:27:09.086Z,5.55
2022-12-13T14:29:48.874Z,5.40
2022-12-13T14:32:29.241Z,5.65
2022-12-13T14:37:37.655Z,5.32
2022-12-13T14:40:28.968Z,4.07
2022-12-13T14:42:55.995Z,5.45
2022-12-13T14:45:33.063Z,5.85
2022-12-13T14:48:05.217Z,6.53
2022-12-13T14:50:35.336Z,6.05
2022-12-13T14:53:04.844Z,6.15
2022-12-13T14:55:36.348Z,5.78
2022-12-13T14:58:17.162Z,6.07
2022-12-13T15:00:45.869Z,6.55
2022-12-13T15:03:27.129Z,6.68
2022-12-13T15:06:02.687Z,6.15
2022-12-13T15:08:37.679Z,6.80
2022-12-13T15:11:09.904Z,6.70
2022-12-13T15:13:48.212Z,7.10
2022-12-13T15:16:26.348Z,6.55
2022-12-13T15:19:31.009Z,7.25
2022-12-13T15:22:07.621Z,6.55
2022-12-13T15:24:48.605Z,6.93
2022-12-13T15:27:49.898Z,7.90
2022-12-13T15:30:16.935Z,7.25
2022-12-13T15:33:26.355Z,7.00
2022-12-13T15:36:27.830Z,6.57
2022-12-13T15:38:57.331Z,5.85
2022-12-13T15:41:31.983Z,7.55
2022-12-13T15:44:14.921Z,7.22
2022-12-13T15:46:47.321Z,7.88
2022-12-13T15:49:38.564Z,8.40
2022-12-13T15:52:16.360Z,7.97
2022-12-13T15:54:59.399Z,6.90
2022-12-13T15:57:30.361Z,7.65
2022-12-13T16:00:17.733Z,7.32
2022-12-13T16:03:09.081Z,7.85
2022-12-13T16:05:42.325Z,7.45
2022-12-13T16:08:32.557Z,8.57
2022-12-13T16:11:00.119Z,7.45
2022-12-13T16:13:33.756Z,9.20
2022-12-13T16:16:27.329Z,7.65
2022-12-13T16:19:00.227Z,8.35
2022-12-13T16:21:28.744Z,8.48
2022-12-13T16:23:55.732Z,7.18
2022-12-13T16:26:28.212Z,7.70
2022-12-13T16:29:00.104Z,10.32
2022-12-13T16:31:35.196Z,8.95
2022-12-13T16:34:03.919Z,8.52
2022-12-13T16:36:31.224Z,8.18
2022-12-13T16:38:58.156Z,7.57
2022-12-13T16:41:25.585Z,7.93
2022-12-13T16:44:01.478Z,10.07
2022-12-13T16:47:11.689Z,9.02
2022-12-13T16:49:22.208Z,10.27
2022-12-13T16:51:49.502Z,9.55
2022-12-13T16:54:18.813Z,7.90
2022-12-13T16:56:46.221Z,8.93
2022-12-13T16:59:19.377Z,9.45
2022-12-13T17:01:46.960Z,7.63
2022-12-13T17:04:20.659Z,7.35
2022-12-13T17:06:50.462Z,8.20
2022-12-13T17:09:19.053Z,8.38
2022-12-13T17:11:46.175Z,8.35
2022-12-13T17:14:13.129Z,8.77
2022-12-13T17:16:40.362Z,9.25
2022-12-13T17:19:07.354Z,7.93
2022-12-13T17:21:35.095Z,7.97
2022-12-13T17:24:02.973Z,9.07
2022-12-13T17:26:30.098Z,8.65
2022-12-13T17:28:57.029Z,8.45
2022-12-13T17:31:24.120Z,8.23
2022-12-13T17:33:52.292Z,8.35
2022-12-13T17:36:19.279Z,9.95
2022-12-13T17:38:47.762Z,9.43
2022-12-13T17:41:15.847Z,9.68
2022-12-13T17:43:43.798Z,8.88
2022-12-13T17:46:18.410Z,8.35
2022-12-13T17:48:45.615Z,8.93
2022-12-13T17:51:13.997Z,8.20
2022-12-13T17:53:43.451Z,7.57
2022-12-13T17:56:15.660Z,7.05
2022-12-13T17:58:43.743Z,8.55
2022-12-13T18:01:14.760Z,9.25
2022-12-13T18:06:09.220Z,7.05
2022-12-13T18:08:38.885Z,8.35
2022-12-13T18:11:31.707Z,9.73
2022-12-13T18:13:55.908Z,8.75
2022-12-13T18:16:30.383Z,8.35
2022-12-13T18:19:03.542Z,10.02
2022-12-13T18:21:30.480Z,9.48
2022-12-13T18:23:59.462Z,8.52
2022-12-13T18:26:26.693Z,7.72
2022-12-13T18:28:54.065Z,7.95
2022-12-13T18:31:24.043Z,8.00
2022-12-13T18:33:53.839Z,7.65
2022-12-13T18:36:24.728Z,8.15
2022-12-13T18:38:51.925Z,9.45
2022-12-13T18:41:23.074Z,8.32
2022-12-13T18:46:23.125Z,7.03
2022-12-13T18:48:50.143Z,7.22
2022-12-13T18:51:18.315Z,9.10
2022-12-13T18:53:45.347Z,9.25
2022-12-13T18:56:18.789Z,7.50
2022-12-13T18:58:48.790Z,8.20
2022-12-13T19:01:17.408Z,7.80
2022-12-13T19:03:49.196Z,7.85
2022-12-13T19:06:22.842Z,7.07
2022-12-13T19:08:54.459Z,8.50
2022-12-13T19:11:22.761Z,8.98
2022-12-13T19:13:50.171Z,9.73
2022-12-13T19:16:21.220Z,8.43
2022-12-13T19:21:19.003Z,7.50
2022-12-13T19:23:51.259Z,9.00
2022-12-13T19:26:22.714Z,7.20
2022-12-13T19:28:50.696Z,8.45
2022-12-13T19:31:17.703Z,7.53
2022-12-13T19:33:44.732Z,6.45
2022-12-13T19:36:12.148Z,6.50
2022-12-13T19:38:40.805Z,6.90
2022-12-13T19:41:14.358Z,7.03
2022-12-13T19:43:45.467Z,7.07
2022-12-13T19:46:18.524Z,6.55
2022-12-13T19:48:45.632Z,7.13
2022-12-13T19:51:12.581Z,8.43
2022-12-13T19:53:39.867Z,7.60
2022-12-13T19:56:17.674Z,6.88
2022-12-13T19:58:46.619Z,6.95
2022-12-13T20:01:14.341Z,5.63
2022-12-13T20:03:45.543Z,5.82
2022-12-13T20:08:43.419Z,7.95
2022-12-13T20:11:19.433Z,6.50
2022-12-13T20:13:48.642Z,7.47
2022-12-13T20:16:19.531Z,7.13
2022-12-13T20:18:47.364Z,7.47
2022-12-13T20:21:21.141Z,6.15
2022-12-13T20:23:48.897Z,7.07
2022-12-13T20:26:20.822Z,6.22
2022-12-13T20:31:25.298Z,6.63
2022-12-13T20:34:04.257Z,6.47
2022-12-13T20:36:31.455Z,5.00
2022-12-13T20:39:05.691Z,6.72
2022-12-13T20:41:35.936Z,6.88
2022-12-13T20:44:06.105Z,6.25
2022-12-13T20:46:33.883Z,5.80
2022-12-13T20:49:03.911Z,6.22
2022-12-13T20:51:33.143Z,6.03
2022-12-13T20:54:00.675Z,4.75
2022-12-13T20:56:35.088Z,5.75
2022-12-13T20:59:07.930Z,7.13
2022-12-13T21:01:38.521Z,7.57
2022-12-13T21:04:09.412Z,6.20
2022-12-13T21:06:40.582Z,5.93
2022-12-13T21:11:43.094Z,5.72
2022-12-13T21:14:22.214Z,6.47
2022-12-13T21:16:59.007Z,5.28
2022-12-13T21:19:38.935Z,6.10
2022-12-13T21:22:07.558Z,5.28
2022-12-13T21:24:34.657Z,6.28
2022-12-13T21:27:01.666Z,6.60
2022-12-13T21:29:28.703Z,7.28
2022-12-13T21:31:56.072Z,6.40
2022-12-13T21:34:23.573Z,6.32
2022-12-13T21:36:52.485Z,5.13
2022-12-13T21:39:27.602Z,6.18
2022-12-13T21:41:55.097Z,5.80
2022-12-13T21:44:22.203Z,5.13
2022-12-13T21:49:36.381Z,5.28
2022-12-13T21:52:03.428Z,5.75
2022-12-13T21:54:30.412Z,6.30
2022-12-13T21:57:16.173Z,5.65
2022-12-13T21:59:43.133Z,5.30
2022-12-13T22:02:17.794Z,5.63
2022-12-13T22:04:54.831Z,5.95
2022-12-13T22:07:28.150Z,5.57
2022-12-13T22:09:56.581Z,5.50
2022-12-13T22:12:29.605Z,5.60
2022-12-13T22:14:56.564Z,5.22
2022-12-13T22:17:31.257Z,5.70
2022-12-13T22:20:00.743Z,5.47
2022-12-13T22:22:27.979Z,5.20
2022-12-13T22:24:54.927Z,6.05
2022-12-13T22:27:23.599Z,5.15
2022-12-13T22:29:59.594Z,5.38
2022-12-13T22:32:29.614Z,5.30
2022-12-13T22:34:56.810Z,5.25
2022-12-13T22:37:24.717Z,5.45
2022-12-13T22:39:51.714Z,4.70
2022-12-13T22:42:19.406Z,6.28
2022-12-13T22:44:46.325Z,5.05
2022-12-13T22:47:13.269Z,4.60
2022-12-13T22:49:40.240Z,5.82
2022-12-13T22:52:08.738Z,4.72
2022-12-13T22:54:35.800Z,4.47
2022-12-13T22:57:02.826Z,5.53
2022-12-13T22:59:29.928Z,5.53
2022-12-13T23:02:02.041Z,5.25
2022-12-13T23:04:32.637Z,4.40
2022-12-13T23:06:59.668Z,4.63
2022-12-13T23:09:26.658Z,4.82
2022-12-13T23:12:11.818Z,4.85
2022-12-13T23:14:38.866Z,4.53
2022-12-13T23:17:06.120Z,4.47
2022-12-13T23:19:51.517Z,3.80
2022-12-13T23:22:25.478Z,5.75
2022-12-13T23:24:53.499Z,5.40
2022-12-13T23:27:23.021Z,6.03
2022-12-13T23:29:50.184Z,5.00
2022-12-13T23:32:17.509Z,5.82
2022-12-13T23:34:44.443Z,4.70
2022-12-13T23:37:11.493Z,4.03
2022-12-13T23:39:38.696Z,3.95
2022-12-13T23:42:05.662Z,5.53
2022-12-13T23:44:32.632Z,4.95
2022-12-13T23:46:59.565Z,5.22
2022-12-13T23:49:26.503Z,4.72
2022-12-13T23:51:54.111Z,4.55
2022-12-13T23:54:21.152Z,4.90
2022-12-13T23:56:48.207Z,5.05
2022-12-13T23:59:16.437Z,4.70
